Arboles, CO (81121)

9:48 AM MDT on August 31, 2015 (GMT -0600)
Crowbar Creek | | Change Station
CLOSE
Current Station
Personal Weather Station
Location: Bayfield, CO
Elevation: 6979 ft
Nearby Weather Stations

Elev 6979 ft 37.21 °N, 107.54 °W | Updated 30 seconds ago

Mostly Cloudy
Mostly Cloudy
66.8 °F
Feels Like 66.8 °F
N
4.6
Wind Variable Wind from WSW
Gusts 4.6 mph

Today
High -- | Low -- °F
--% Chance of Precip.
Yesterday
High -- | Low -- °F
Precip. -- in
6:39 AM 7:40 PM
Waning Gibbous, 95% visible
Pressure 30.05 in
Visibility 10.0 miles
Clouds Overcast 9000 ft
Dew Point 51 °F
Humidity 57%
Rainfall 0.00 in
Snow Depth Not available.
UV 1 out of 12
Pollen 6.90 out of 12
Air Quality Not available.
Flu Activity Not available.
METAR KDRO 311453Z AUTO 08004KT 10SM OVC090 17/09 A3028 RMK AO2 SLP174 T01670089 51011
Pressure 30.05 in
Visibility 10.0 miles
Clouds Overcast 9000 ft
Dew Point 51 °F
Humidity 57%
Rainfall 0.00 in
Snow Depth Not available.
UV 1 out of 12
Pollen 6.90 out of 12
Air Quality Not available.
Flu Activity Not available.
METAR KDRO 311453Z AUTO 08004KT 10SM OVC090 17/09 A3028 RMK AO2 SLP174 T01670089 51011

10-Day Weather Forecast

×

Almanac

Astronomy

Aug. 31, 2015 Rise Set
Actual Time
Civil Twilight
Nautical Twilight
Astronomical Twilight
Moon
Length of Visible Light
Length of Day
Tomorrow will be .
, % of the Moon is Illuminated

Today's Extremes

State Highs State Lows

Community

WunderPhotos

Upload Photos

1,851,282 photos uploaded!

WunderBlogs® & News

Nearby

Air Quality

  Air Quality AQ Index Pollutant
Not available.

Snow Depth

Station Depth Elevation

Earthquake Activity

City Distance Mag. Time & Date
Minimum magnitude displayed is 2.5.

Coastal Water Temperatures

Place Temperature

Stations

Nearby Weather Stations

Station Location Temp. Windchill Dew Point Humidity Wind Precip. Elev Updated Type